sensor_id;sensor_type;location;lat;lon;timestamp;temperature;humidity
51815;DHT22;37874;53.158;6.766;2023-12-20T00:01:37;17.80;74.60
51815;DHT22;37874;53.158;6.766;2023-12-20T00:04:03;17.80;74.60
51815;DHT22;37874;53.158;6.766;2023-12-20T00:06:32;17.80;74.40
51815;DHT22;37874;53.158;6.766;2023-12-20T00:08:58;17.80;73.90
51815;DHT22;37874;53.158;6.766;2023-12-20T00:11:24;17.80;74.10
51815;DHT22;37874;53.158;6.766;2023-12-20T00:13:50;17.80;74.00
51815;DHT22;37874;53.158;6.766;2023-12-20T00:16:16;17.80;73.90
51815;DHT22;37874;53.158;6.766;2023-12-20T00:18:42;17.80;74.00
51815;DHT22;37874;53.158;6.766;2023-12-20T00:21:08;17.80;73.90
51815;DHT22;37874;53.158;6.766;2023-12-20T00:23:34;17.80;73.60
51815;DHT22;37874;53.158;6.766;2023-12-20T00:26:00;17.80;73.50
51815;DHT22;37874;53.158;6.766;2023-12-20T00:28:26;17.80;73.30
51815;DHT22;37874;53.158;6.766;2023-12-20T00:30:52;17.80;73.10
51815;DHT22;37874;53.158;6.766;2023-12-20T00:33:18;17.80;72.40
51815;DHT22;37874;53.158;6.766;2023-12-20T00:35:44;17.80;72.80
51815;DHT22;37874;53.158;6.766;2023-12-20T00:38:10;17.80;72.70
51815;DHT22;37874;53.158;6.766;2023-12-20T00:40:37;17.80;72.70
51815;DHT22;37874;53.158;6.766;2023-12-20T00:43:03;17.80;72.70
51815;DHT22;37874;53.158;6.766;2023-12-20T00:45:29;17.80;72.70
51815;DHT22;37874;53.158;6.766;2023-12-20T00:47:55;17.80;72.60
51815;DHT22;37874;53.158;6.766;2023-12-20T00:50:21;17.80;72.60
51815;DHT22;37874;53.158;6.766;2023-12-20T00:52:47;17.80;72.30
51815;DHT22;37874;53.158;6.766;2023-12-20T00:55:13;17.80;72.30
51815;DHT22;37874;53.158;6.766;2023-12-20T00:57:39;17.80;72.20
51815;DHT22;37874;53.158;6.766;2023-12-20T01:00:06;17.80;71.90
51815;DHT22;37874;53.158;6.766;2023-12-20T01:02:32;17.80;71.80
51815;DHT22;37874;53.158;6.766;2023-12-20T01:04:58;17.80;71.60
51815;DHT22;37874;53.158;6.766;2023-12-20T01:07:24;17.80;71.80
51815;DHT22;37874;53.158;6.766;2023-12-20T01:09:49;17.80;71.90
51815;DHT22;37874;53.158;6.766;2023-12-20T01:12:15;17.80;71.70
51815;DHT22;37874;53.158;6.766;2023-12-20T01:14:41;17.80;71.70
51815;DHT22;37874;53.158;6.766;2023-12-20T01:17:07;17.90;71.60
51815;DHT22;37874;53.158;6.766;2023-12-20T01:19:33;17.90;71.40
51815;DHT22;37874;53.158;6.766;2023-12-20T01:21:59;17.90;71.30
51815;DHT22;37874;53.158;6.766;2023-12-20T01:24:25;17.90;71.30
51815;DHT22;37874;53.158;6.766;2023-12-20T01:26:51;17.90;71.30
51815;DHT22;37874;53.158;6.766;2023-12-20T01:29:17;17.90;71.10
51815;DHT22;37874;53.158;6.766;2023-12-20T01:31:43;17.90;70.90
51815;DHT22;37874;53.158;6.766;2023-12-20T01:34:09;17.90;71.10
51815;DHT22;37874;53.158;6.766;2023-12-20T01:36:35;17.90;71.10
51815;DHT22;37874;53.158;6.766;2023-12-20T01:39:01;17.80;70.70
51815;DHT22;37874;53.158;6.766;2023-12-20T01:41:27;17.90;70.90
51815;DHT22;37874;53.158;6.766;2023-12-20T01:43:53;17.90;69.80
51815;DHT22;37874;53.158;6.766;2023-12-20T01:46:20;17.90;70.60
51815;DHT22;37874;53.158;6.766;2023-12-20T01:48:47;17.90;69.60
51815;DHT22;37874;53.158;6.766;2023-12-20T01:51:13;17.90;70.10
51815;DHT22;37874;53.158;6.766;2023-12-20T01:53:41;17.90;69.80
51815;DHT22;37874;53.158;6.766;2023-12-20T01:56:08;17.90;70.10
51815;DHT22;37874;53.158;6.766;2023-12-20T01:58:34;17.90;70.10
51815;DHT22;37874;53.158;6.766;2023-12-20T02:01:03;17.90;69.90
51815;DHT22;37874;53.158;6.766;2023-12-20T02:03:29;17.90;69.60
51815;DHT22;37874;53.158;6.766;2023-12-20T02:05:55;17.90;69.00
51815;DHT22;37874;53.158;6.766;2023-12-20T02:08:21;18.00;69.50
51815;DHT22;37874;53.158;6.766;2023-12-20T02:10:47;18.00;68.90
51815;DHT22;37874;53.158;6.766;2023-12-20T02:13:31;17.50;69.00
51815;DHT22;37874;53.158;6.766;2023-12-20T02:16:16;17.90;69.00
51815;DHT22;37874;53.158;6.766;2023-12-20T02:22:23;17.90;68.50
51815;DHT22;37874;53.158;6.766;2023-12-20T02:28:11;17.90;68.60
51815;DHT22;37874;53.158;6.766;2023-12-20T02:37:03;17.90;68.40
51815;DHT22;37874;53.158;6.766;2023-12-20T02:39:29;18.00;68.60
51815;DHT22;37874;53.158;6.766;2023-12-20T02:50:47;17.90;68.30
51815;DHT22;37874;53.158;6.766;2023-12-20T02:56:36;17.90;68.30
51815;DHT22;37874;53.158;6.766;2023-12-20T03:02:24;18.00;68.10
51815;DHT22;37874;53.158;6.766;2023-12-20T03:05:27;17.90;68.10
51815;DHT22;37874;53.158;6.766;2023-12-20T03:14:19;18.00;68.20
51815;DHT22;37874;53.158;6.766;2023-12-20T03:23:10;18.00;68.10
51815;DHT22;37874;53.158;6.766;2023-12-20T03:29:17;18.00;67.40
51815;DHT22;37874;53.158;6.766;2023-12-20T03:32:20;18.00;67.70
51815;DHT22;37874;53.158;6.766;2023-12-20T03:38:08;18.00;67.60
51815;DHT22;37874;53.158;6.766;2023-12-20T03:47:19;18.00;67.20
51815;DHT22;37874;53.158;6.766;2023-12-20T03:53:07;18.00;66.80
51815;DHT22;37874;53.158;6.766;2023-12-20T03:56:10;18.00;66.10
51815;DHT22;37874;53.158;6.766;2023-12-20T03:59:13;18.00;66.90
51815;DHT22;37874;53.158;6.766;2023-12-20T04:05:20;18.00;66.30
51815;DHT22;37874;53.158;6.766;2023-12-20T04:11:42;18.00;66.30
51815;DHT22;37874;53.158;6.766;2023-12-20T04:14:08;18.00;65.80
51815;DHT22;37874;53.158;6.766;2023-12-20T04:16:34;18.00;66.20
51815;DHT22;37874;53.158;6.766;2023-12-20T04:19:00;18.00;66.20
51815;DHT22;37874;53.158;6.766;2023-12-20T04:21:26;18.00;66.30
51815;DHT22;37874;53.158;6.766;2023-12-20T04:23:52;18.00;66.30
51815;DHT22;37874;53.158;6.766;2023-12-20T04:26:18;18.00;66.30
51815;DHT22;37874;53.158;6.766;2023-12-20T04:28:44;18.00;66.20
51815;DHT22;37874;53.158;6.766;2023-12-20T04:31:10;18.00;66.00
51815;DHT22;37874;53.158;6.766;2023-12-20T04:33:36;18.00;66.10
51815;DHT22;37874;53.158;6.766;2023-12-20T04:36:02;17.70;65.70
51815;DHT22;37874;53.158;6.766;2023-12-20T04:38:28;18.00;66.10
51815;DHT22;37874;53.158;6.766;2023-12-20T04:40:53;18.00;65.80
51815;DHT22;37874;53.158;6.766;2023-12-20T04:43:19;18.00;65.90
51815;DHT22;37874;53.158;6.766;2023-12-20T04:45:45;18.00;65.90
51815;DHT22;37874;53.158;6.766;2023-12-20T04:48:12;18.00;65.80
51815;DHT22;37874;53.158;6.766;2023-12-20T04:50:37;18.00;65.70
51815;DHT22;37874;53.158;6.766;2023-12-20T04:53:04;18.00;65.60
51815;DHT22;37874;53.158;6.766;2023-12-20T04:55:29;18.00;65.90
51815;DHT22;37874;53.158;6.766;2023-12-20T04:57:56;18.00;65.50
51815;DHT22;37874;53.158;6.766;2023-12-20T05:00:22;18.00;65.70
51815;DHT22;37874;53.158;6.766;2023-12-20T05:02:48;18.00;65.20
51815;DHT22;37874;53.158;6.766;2023-12-20T05:05:14;18.00;64.70
51815;DHT22;37874;53.158;6.766;2023-12-20T05:07:40;18.00;65.30
51815;DHT22;37874;53.158;6.766;2023-12-20T05:10:07;18.00;65.10
51815;DHT22;37874;53.158;6.766;2023-12-20T05:12:35;18.00;65.00
51815;DHT22;37874;53.158;6.766;2023-12-20T05:15:01;18.00;65.10
51815;DHT22;37874;53.158;6.766;2023-12-20T05:17:27;18.00;64.90
51815;DHT22;37874;53.158;6.766;2023-12-20T05:19:53;18.00;64.80
51815;DHT22;37874;53.158;6.766;2023-12-20T05:22:19;18.00;64.80
51815;DHT22;37874;53.158;6.766;2023-12-20T05:24:45;18.00;64.70
51815;DHT22;37874;53.158;6.766;2023-12-20T05:27:11;18.00;64.80
51815;DHT22;37874;53.158;6.766;2023-12-20T05:29:37;18.00;65.00
51815;DHT22;37874;53.158;6.766;2023-12-20T05:32:04;18.10;64.80
51815;DHT22;37874;53.158;6.766;2023-12-20T05:34:33;18.00;64.90
51815;DHT22;37874;53.158;6.766;2023-12-20T05:36:58;18.10;64.80
51815;DHT22;37874;53.158;6.766;2023-12-20T05:39:24;18.10;64.90
51815;DHT22;37874;53.158;6.766;2023-12-20T05:41:51;18.10;64.90
51815;DHT22;37874;53.158;6.766;2023-12-20T05:44:17;18.00;64.30
51815;DHT22;37874;53.158;6.766;2023-12-20T05:46:43;18.00;64.30
51815;DHT22;37874;53.158;6.766;2023-12-20T05:49:09;18.00;63.90
51815;DHT22;37874;53.158;6.766;2023-12-20T05:51:36;18.00;63.50
51815;DHT22;37874;53.158;6.766;2023-12-20T05:54:02;18.00;63.80
51815;DHT22;37874;53.158;6.766;2023-12-20T05:56:28;18.00;64.20
51815;DHT22;37874;53.158;6.766;2023-12-20T05:58:54;18.00;64.30
51815;DHT22;37874;53.158;6.766;2023-12-20T06:01:20;18.00;64.20
51815;DHT22;37874;53.158;6.766;2023-12-20T06:03:45;18.00;64.30
51815;DHT22;37874;53.158;6.766;2023-12-20T06:06:11;18.00;64.40
51815;DHT22;37874;53.158;6.766;2023-12-20T06:08:38;18.00;63.90
51815;DHT22;37874;53.158;6.766;2023-12-20T06:11:04;18.00;64.00
51815;DHT22;37874;53.158;6.766;2023-12-20T06:13:31;18.00;63.70
51815;DHT22;37874;53.158;6.766;2023-12-20T06:15:57;18.00;63.70
51815;DHT22;37874;53.158;6.766;2023-12-20T06:18:23;18.00;63.30
51815;DHT22;37874;53.158;6.766;2023-12-20T06:20:50;18.00;62.90
51815;DHT22;37874;53.158;6.766;2023-12-20T06:23:16;18.00;63.50
51815;DHT22;37874;53.158;6.766;2023-12-20T06:25:42;18.00;63.60
51815;DHT22;37874;53.158;6.766;2023-12-20T06:28:08;18.00;63.70
51815;DHT22;37874;53.158;6.766;2023-12-20T06:30:36;18.00;63.60
51815;DHT22;37874;53.158;6.766;2023-12-20T06:33:02;18.00;62.70
51815;DHT22;37874;53.158;6.766;2023-12-20T06:35:29;18.00;63.30
51815;DHT22;37874;53.158;6.766;2023-12-20T06:37:56;18.00;63.60
51815;DHT22;37874;53.158;6.766;2023-12-20T06:40:22;18.00;63.40
51815;DHT22;37874;53.158;6.766;2023-12-20T06:42:47;18.00;63.40
51815;DHT22;37874;53.158;6.766;2023-12-20T06:45:13;18.00;63.40
51815;DHT22;37874;53.158;6.766;2023-12-20T06:47:39;18.00;63.40
51815;DHT22;37874;53.158;6.766;2023-12-20T06:50:05;18.00;63.70
51815;DHT22;37874;53.158;6.766;2023-12-20T06:52:34;17.90;63.50
51815;DHT22;37874;53.158;6.766;2023-12-20T06:55:01;18.00;63.70
51815;DHT22;37874;53.158;6.766;2023-12-20T06:57:27;18.00;63.80
51815;DHT22;37874;53.158;6.766;2023-12-20T06:59:53;18.00;63.60
51815;DHT22;37874;53.158;6.766;2023-12-20T07:02:19;18.00;63.60
51815;DHT22;37874;53.158;6.766;2023-12-20T07:04:45;17.90;63.50
51815;DHT22;37874;53.158;6.766;2023-12-20T07:07:11;17.90;63.50
51815;DHT22;37874;53.158;6.766;2023-12-20T07:09:37;17.90;63.30
51815;DHT22;37874;53.158;6.766;2023-12-20T07:12:04;17.90;63.00
51815;DHT22;37874;53.158;6.766;2023-12-20T07:14:30;17.90;63.10
51815;DHT22;37874;53.158;6.766;2023-12-20T07:16:56;17.90;63.40
51815;DHT22;37874;53.158;6.766;2023-12-20T07:19:22;17.90;63.30
51815;DHT22;37874;53.158;6.766;2023-12-20T07:21:48;17.90;63.00
51815;DHT22;37874;53.158;6.766;2023-12-20T07:24:14;17.90;63.40
51815;DHT22;37874;53.158;6.766;2023-12-20T07:26:40;18.00;63.00
51815;DHT22;37874;53.158;6.766;2023-12-20T07:29:06;18.00;63.20
51815;DHT22;37874;53.158;6.766;2023-12-20T07:31:32;18.00;62.90
51815;DHT22;37874;53.158;6.766;2023-12-20T07:33:58;18.00;63.40
51815;DHT22;37874;53.158;6.766;2023-12-20T07:36:24;17.90;62.60
51815;DHT22;37874;53.158;6.766;2023-12-20T07:38:50;17.90;63.10
51815;DHT22;37874;53.158;6.766;2023-12-20T07:41:16;18.00;63.10
51815;DHT22;37874;53.158;6.766;2023-12-20T07:43:42;18.00;62.70
51815;DHT22;37874;53.158;6.766;2023-12-20T07:46:09;18.00;62.40
51815;DHT22;37874;53.158;6.766;2023-12-20T07:48:35;18.00;62.10
51815;DHT22;37874;53.158;6.766;2023-12-20T07:51:02;17.90;62.20
51815;DHT22;37874;53.158;6.766;2023-12-20T07:53:28;18.00;62.80
51815;DHT22;37874;53.158;6.766;2023-12-20T07:55:54;18.00;62.50
51815;DHT22;37874;53.158;6.766;2023-12-20T07:58:20;18.00;61.80
51815;DHT22;37874;53.158;6.766;2023-12-20T08:00:46;17.90;62.30
51815;DHT22;37874;53.158;6.766;2023-12-20T08:03:11;18.00;61.20
51815;DHT22;37874;53.158;6.766;2023-12-20T08:05:38;17.90;62.30
51815;DHT22;37874;53.158;6.766;2023-12-20T08:08:06;17.90;62.30
51815;DHT22;37874;53.158;6.766;2023-12-20T08:10:32;17.90;62.20
51815;DHT22;37874;53.158;6.766;2023-12-20T08:12:58;17.90;62.00
51815;DHT22;37874;53.158;6.766;2023-12-20T08:15:27;17.90;62.20
51815;DHT22;37874;53.158;6.766;2023-12-20T08:17:53;17.90;62.00
51815;DHT22;37874;53.158;6.766;2023-12-20T08:20:19;17.90;61.40
51815;DHT22;37874;53.158;6.766;2023-12-20T08:22:45;17.90;61.70
51815;DHT22;37874;53.158;6.766;2023-12-20T08:25:11;17.90;61.90
51815;DHT22;37874;53.158;6.766;2023-12-20T08:27:39;17.90;61.20
51815;DHT22;37874;53.158;6.766;2023-12-20T08:30:07;17.90;61.70
51815;DHT22;37874;53.158;6.766;2023-12-20T08:32:33;17.90;61.80
51815;DHT22;37874;53.158;6.766;2023-12-20T08:35:00;17.90;61.50
51815;DHT22;37874;53.158;6.766;2023-12-20T08:37:25;17.90;61.60
51815;DHT22;37874;53.158;6.766;2023-12-20T08:39:51;17.90;61.40
51815;DHT22;37874;53.158;6.766;2023-12-20T08:42:17;18.00;61.50
51815;DHT22;37874;53.158;6.766;2023-12-20T08:44:43;18.00;61.40
51815;DHT22;37874;53.158;6.766;2023-12-20T08:47:09;18.00;60.70
51815;DHT22;37874;53.158;6.766;2023-12-20T08:49:39;18.00;61.40
51815;DHT22;37874;53.158;6.766;2023-12-20T08:52:06;18.00;61.20
51815;DHT22;37874;53.158;6.766;2023-12-20T08:54:32;18.00;61.50
51815;DHT22;37874;53.158;6.766;2023-12-20T08:56:58;18.00;61.30
51815;DHT22;37874;53.158;6.766;2023-12-20T08:59:26;18.10;61.80
51815;DHT22;37874;53.158;6.766;2023-12-20T09:01:52;18.00;61.30
51815;DHT22;37874;53.158;6.766;2023-12-20T09:04:20;18.00;61.30
51815;DHT22;37874;53.158;6.766;2023-12-20T09:06:46;18.00;61.90
51815;DHT22;37874;53.158;6.766;2023-12-20T09:09:15;18.00;61.70
51815;DHT22;37874;53.158;6.766;2023-12-20T09:11:41;18.00;61.80
51815;DHT22;37874;53.158;6.766;2023-12-20T09:14:07;18.00;61.90
51815;DHT22;37874;53.158;6.766;2023-12-20T09:16:33;18.00;62.30
51815;DHT22;37874;53.158;6.766;2023-12-20T09:19:03;18.00;62.20
51815;DHT22;37874;53.158;6.766;2023-12-20T09:21:29;17.90;62.50
51815;DHT22;37874;53.158;6.766;2023-12-20T09:23:55;18.00;62.40
51815;DHT22;37874;53.158;6.766;2023-12-20T09:26:20;18.10;62.70
51815;DHT22;37874;53.158;6.766;2023-12-20T09:28:46;18.20;62.70
51815;DHT22;37874;53.158;6.766;2023-12-20T09:31:13;18.00;62.40
51815;DHT22;37874;53.158;6.766;2023-12-20T09:33:40;17.70;62.30
51815;DHT22;37874;53.158;6.766;2023-12-20T09:36:06;18.00;62.40
51815;DHT22;37874;53.158;6.766;2023-12-20T09:38:32;18.00;62.50
51815;DHT22;37874;53.158;6.766;2023-12-20T09:41:02;18.00;62.00
51815;DHT22;37874;53.158;6.766;2023-12-20T09:43:33;18.00;62.20
51815;DHT22;37874;53.158;6.766;2023-12-20T09:46:06;18.00;62.50
51815;DHT22;37874;53.158;6.766;2023-12-20T09:48:36;18.00;62.40
51815;DHT22;37874;53.158;6.766;2023-12-20T09:51:02;18.00;62.30
51815;DHT22;37874;53.158;6.766;2023-12-20T09:53:29;18.00;62.30
51815;DHT22;37874;53.158;6.766;2023-12-20T09:55:59;18.00;62.00
51815;DHT22;37874;53.158;6.766;2023-12-20T09:58:26;18.10;61.50
51815;DHT22;37874;53.158;6.766;2023-12-20T10:00:53;18.00;62.20
51815;DHT22;37874;53.158;6.766;2023-12-20T10:03:24;18.10;62.30
51815;DHT22;37874;53.158;6.766;2023-12-20T10:05:56;18.10;62.30
51815;DHT22;37874;53.158;6.766;2023-12-20T10:08:24;18.10;62.20
51815;DHT22;37874;53.158;6.766;2023-12-20T10:10:51;18.10;61.80
51815;DHT22;37874;53.158;6.766;2023-12-20T10:13:17;18.10;62.20
51815;DHT22;37874;53.158;6.766;2023-12-20T10:15:43;18.20;62.10
51815;DHT22;37874;53.158;6.766;2023-12-20T10:18:09;18.20;61.90
51815;DHT22;37874;53.158;6.766;2023-12-20T10:20:36;18.20;61.40
51815;DHT22;37874;53.158;6.766;2023-12-20T10:23:06;18.20;61.20
51815;DHT22;37874;53.158;6.766;2023-12-20T10:25:37;18.20;61.60
51815;DHT22;37874;53.158;6.766;2023-12-20T10:28:13;18.20;61.00
51815;DHT22;37874;53.158;6.766;2023-12-20T10:30:41;18.30;62.00
51815;DHT22;37874;53.158;6.766;2023-12-20T10:33:07;18.30;61.50
51815;DHT22;37874;53.158;6.766;2023-12-20T10:35:34;18.30;61.30
51815;DHT22;37874;53.158;6.766;2023-12-20T10:38:03;18.40;61.00
51815;DHT22;37874;53.158;6.766;2023-12-20T10:40:31;18.40;61.20
51815;DHT22;37874;53.158;6.766;2023-12-20T10:43:00;18.40;61.20
51815;DHT22;37874;53.158;6.766;2023-12-20T10:45:26;18.50;60.90
51815;DHT22;37874;53.158;6.766;2023-12-20T10:47:52;18.50;61.00
51815;DHT22;37874;53.158;6.766;2023-12-20T10:50:19;18.60;60.50
51815;DHT22;37874;53.158;6.766;2023-12-20T10:52:47;18.60;60.70
51815;DHT22;37874;53.158;6.766;2023-12-20T10:55:13;18.60;60.10
51815;DHT22;37874;53.158;6.766;2023-12-20T10:57:40;18.70;59.80
51815;DHT22;37874;53.158;6.766;2023-12-20T11:00:08;18.80;59.80
51815;DHT22;37874;53.158;6.766;2023-12-20T11:02:39;18.90;59.40
51815;DHT22;37874;53.158;6.766;2023-12-20T11:08:12;19.10;59.20
51815;DHT22;37874;53.158;6.766;2023-12-20T11:10:51;19.10;58.90
51815;DHT22;37874;53.158;6.766;2023-12-20T11:13:55;19.10;58.90
51815;DHT22;37874;53.158;6.766;2023-12-20T11:16:22;19.00;59.90
51815;DHT22;37874;53.158;6.766;2023-12-20T11:18:51;18.90;58.90
51815;DHT22;37874;53.158;6.766;2023-12-20T11:21:17;18.90;59.10
51815;DHT22;37874;53.158;6.766;2023-12-20T11:23:43;18.80;59.30
51815;DHT22;37874;53.158;6.766;2023-12-20T11:26:09;18.80;59.60
51815;DHT22;37874;53.158;6.766;2023-12-20T11:28:35;18.80;59.70
51815;DHT22;37874;53.158;6.766;2023-12-20T11:31:01;18.80;59.90
51815;DHT22;37874;53.158;6.766;2023-12-20T11:33:38;18.80;59.60
51815;DHT22;37874;53.158;6.766;2023-12-20T11:36:13;18.80;60.00
51815;DHT22;37874;53.158;6.766;2023-12-20T11:38:56;18.90;59.90
51815;DHT22;37874;53.158;6.766;2023-12-20T11:41:23;18.80;59.90
51815;DHT22;37874;53.158;6.766;2023-12-20T11:43:55;18.80;60.00
51815;DHT22;37874;53.158;6.766;2023-12-20T11:46:22;18.80;60.10
51815;DHT22;37874;53.158;6.766;2023-12-20T11:48:48;18.80;60.30
51815;DHT22;37874;53.158;6.766;2023-12-20T11:51:14;18.90;60.10
51815;DHT22;37874;53.158;6.766;2023-12-20T11:53:40;19.00;60.10
51815;DHT22;37874;53.158;6.766;2023-12-20T11:56:08;18.90;60.10
51815;DHT22;37874;53.158;6.766;2023-12-20T11:58:35;18.90;59.70
51815;DHT22;37874;53.158;6.766;2023-12-20T12:01:01;18.90;59.60
51815;DHT22;37874;53.158;6.766;2023-12-20T12:03:30;18.90;59.90
51815;DHT22;37874;53.158;6.766;2023-12-20T12:05:56;18.80;59.90
51815;DHT22;37874;53.158;6.766;2023-12-20T12:08:23;18.80;60.10
51815;DHT22;37874;53.158;6.766;2023-12-20T12:10:49;18.80;60.30
51815;DHT22;37874;53.158;6.766;2023-12-20T12:13:15;18.80;60.30
51815;DHT22;37874;53.158;6.766;2023-12-20T12:15:42;18.70;60.20
51815;DHT22;37874;53.158;6.766;2023-12-20T12:18:08;18.70;60.30
51815;DHT22;37874;53.158;6.766;2023-12-20T12:20:34;18.80;60.60
51815;DHT22;37874;53.158;6.766;2023-12-20T12:23:04;18.60;60.50
51815;DHT22;37874;53.158;6.766;2023-12-20T12:25:32;18.60;60.50
51815;DHT22;37874;53.158;6.766;2023-12-20T12:27:58;18.60;60.50
51815;DHT22;37874;53.158;6.766;2023-12-20T12:30:25;18.50;60.90
51815;DHT22;37874;53.158;6.766;2023-12-20T12:32:52;18.50;60.70
51815;DHT22;37874;53.158;6.766;2023-12-20T12:35:19;18.50;60.40
51815;DHT22;37874;53.158;6.766;2023-12-20T12:37:45;18.50;60.80
51815;DHT22;37874;53.158;6.766;2023-12-20T12:40:13;18.50;60.80
51815;DHT22;37874;53.158;6.766;2023-12-20T12:42:40;18.50;60.90
51815;DHT22;37874;53.158;6.766;2023-12-20T12:45:07;18.50;60.90
51815;DHT22;37874;53.158;6.766;2023-12-20T12:47:34;18.50;60.70
51815;DHT22;37874;53.158;6.766;2023-12-20T12:50:00;18.50;60.60
51815;DHT22;37874;53.158;6.766;2023-12-20T12:52:26;18.50;60.60
51815;DHT22;37874;53.158;6.766;2023-12-20T12:54:53;18.50;60.70
51815;DHT22;37874;53.158;6.766;2023-12-20T12:57:19;18.40;60.20
51815;DHT22;37874;53.158;6.766;2023-12-20T12:59:46;18.40;60.50
51815;DHT22;37874;53.158;6.766;2023-12-20T13:02:12;18.50;60.30
51815;DHT22;37874;53.158;6.766;2023-12-20T13:04:40;18.50;60.30
51815;DHT22;37874;53.158;6.766;2023-12-20T13:07:07;18.50;60.20
51815;DHT22;37874;53.158;6.766;2023-12-20T13:09:33;18.50;60.40
51815;DHT22;37874;53.158;6.766;2023-12-20T13:12:00;18.50;60.20
51815;DHT22;37874;53.158;6.766;2023-12-20T13:14:29;18.50;60.50
51815;DHT22;37874;53.158;6.766;2023-12-20T13:16:55;18.50;60.40
51815;DHT22;37874;53.158;6.766;2023-12-20T13:19:21;18.50;60.40
51815;DHT22;37874;53.158;6.766;2023-12-20T13:21:47;19.30;60.90
51815;DHT22;37874;53.158;6.766;2023-12-20T13:24:14;18.40;60.10
51815;DHT22;37874;53.158;6.766;2023-12-20T13:26:42;18.40;60.50
51815;DHT22;37874;53.158;6.766;2023-12-20T13:29:08;18.40;60.60
51815;DHT22;37874;53.158;6.766;2023-12-20T13:31:34;18.40;60.70
51815;DHT22;37874;53.158;6.766;2023-12-20T13:34:02;18.30;60.90
51815;DHT22;37874;53.158;6.766;2023-12-20T13:36:27;18.30;60.60
51815;DHT22;37874;53.158;6.766;2023-12-20T13:38:53;18.30;60.80
51815;DHT22;37874;53.158;6.766;2023-12-20T13:41:20;18.40;61.00
51815;DHT22;37874;53.158;6.766;2023-12-20T13:43:46;18.30;60.90
51815;DHT22;37874;53.158;6.766;2023-12-20T13:46:11;18.30;60.90
51815;DHT22;37874;53.158;6.766;2023-12-20T13:48:39;18.30;61.00
51815;DHT22;37874;53.158;6.766;2023-12-20T13:51:05;18.30;61.10
51815;DHT22;37874;53.158;6.766;2023-12-20T13:53:32;18.20;61.20
51815;DHT22;37874;53.158;6.766;2023-12-20T13:55:58;18.30;61.30
51815;DHT22;37874;53.158;6.766;2023-12-20T13:58:27;18.20;61.20
51815;DHT22;37874;53.158;6.766;2023-12-20T14:00:53;18.20;61.40
51815;DHT22;37874;53.158;6.766;2023-12-20T14:03:19;18.80;61.70
51815;DHT22;37874;53.158;6.766;2023-12-20T14:05:45;18.20;61.40
51815;DHT22;37874;53.158;6.766;2023-12-20T14:08:11;18.20;61.40
51815;DHT22;37874;53.158;6.766;2023-12-20T14:10:37;18.20;61.40
51815;DHT22;37874;53.158;6.766;2023-12-20T14:13:06;18.20;61.50
51815;DHT22;37874;53.158;6.766;2023-12-20T14:15:36;18.10;61.60
51815;DHT22;37874;53.158;6.766;2023-12-20T14:18:05;18.10;61.30
51815;DHT22;37874;53.158;6.766;2023-12-20T14:20:34;18.10;61.60
51815;DHT22;37874;53.158;6.766;2023-12-20T14:23:03;18.10;61.60
51815;DHT22;37874;53.158;6.766;2023-12-20T14:25:30;18.10;61.80
51815;DHT22;37874;53.158;6.766;2023-12-20T14:27:57;18.10;62.30
51815;DHT22;37874;53.158;6.766;2023-12-20T14:30:23;18.10;61.90
51815;DHT22;37874;53.158;6.766;2023-12-20T14:32:50;18.10;61.90
51815;DHT22;37874;53.158;6.766;2023-12-20T14:35:16;18.10;61.70
51815;DHT22;37874;53.158;6.766;2023-12-20T14:37:42;18.10;61.90
51815;DHT22;37874;53.158;6.766;2023-12-20T14:40:11;18.10;61.90
51815;DHT22;37874;53.158;6.766;2023-12-20T14:42:48;18.00;61.70
51815;DHT22;37874;53.158;6.766;2023-12-20T14:45:15;18.00;61.70
51815;DHT22;37874;53.158;6.766;2023-12-20T14:47:42;18.00;61.80
51815;DHT22;37874;53.158;6.766;2023-12-20T14:50:08;18.10;61.90
51815;DHT22;37874;53.158;6.766;2023-12-20T14:52:34;18.00;61.80
51815;DHT22;37874;53.158;6.766;2023-12-20T14:55:01;18.00;61.60
51815;DHT22;37874;53.158;6.766;2023-12-20T14:57:30;18.00;61.50
51815;DHT22;37874;53.158;6.766;2023-12-20T14:59:57;18.00;61.80
51815;DHT22;37874;53.158;6.766;2023-12-20T15:02:23;18.00;61.90
51815;DHT22;37874;53.158;6.766;2023-12-20T15:04:49;18.20;62.00
51815;DHT22;37874;53.158;6.766;2023-12-20T15:07:16;18.00;61.90
51815;DHT22;37874;53.158;6.766;2023-12-20T15:09:43;18.00;62.00
51815;DHT22;37874;53.158;6.766;2023-12-20T15:12:12;18.00;62.00
51815;DHT22;37874;53.158;6.766;2023-12-20T15:14:38;18.00;62.00
51815;DHT22;37874;53.158;6.766;2023-12-20T15:17:10;18.00;62.20
51815;DHT22;37874;53.158;6.766;2023-12-20T15:19:36;17.90;62.30
51815;DHT22;37874;53.158;6.766;2023-12-20T15:22:02;17.90;62.30
51815;DHT22;37874;53.158;6.766;2023-12-20T15:24:30;17.90;62.40
51815;DHT22;37874;53.158;6.766;2023-12-20T15:27:05;17.90;62.40
51815;DHT22;37874;53.158;6.766;2023-12-20T15:29:31;17.90;62.60
51815;DHT22;37874;53.158;6.766;2023-12-20T15:31:57;17.90;62.60
51815;DHT22;37874;53.158;6.766;2023-12-20T15:34:26;17.90;62.90
51815;DHT22;37874;53.158;6.766;2023-12-20T15:36:52;17.90;62.90
51815;DHT22;37874;53.158;6.766;2023-12-20T15:39:18;17.90;62.90
51815;DHT22;37874;53.158;6.766;2023-12-20T15:41:44;17.90;62.90
51815;DHT22;37874;53.158;6.766;2023-12-20T15:44:11;17.90;63.00
51815;DHT22;37874;53.158;6.766;2023-12-20T15:46:38;18.00;63.20
51815;DHT22;37874;53.158;6.766;2023-12-20T15:49:05;18.00;63.20
51815;DHT22;37874;53.158;6.766;2023-12-20T15:51:31;18.00;63.40
51815;DHT22;37874;53.158;6.766;2023-12-20T15:53:58;18.00;63.30
51815;DHT22;37874;53.158;6.766;2023-12-20T15:56:29;18.00;63.20
51815;DHT22;37874;53.158;6.766;2023-12-20T15:58:55;18.00;63.30
51815;DHT22;37874;53.158;6.766;2023-12-20T16:01:23;18.00;63.40
51815;DHT22;37874;53.158;6.766;2023-12-20T16:03:49;18.00;63.60
51815;DHT22;37874;53.158;6.766;2023-12-20T16:06:15;18.00;63.40
51815;DHT22;37874;53.158;6.766;2023-12-20T16:08:42;18.00;63.40
51815;DHT22;37874;53.158;6.766;2023-12-20T16:11:10;18.00;63.50
51815;DHT22;37874;53.158;6.766;2023-12-20T16:13:35;18.10;63.60
51815;DHT22;37874;53.158;6.766;2023-12-20T16:16:02;18.10;63.50
51815;DHT22;37874;53.158;6.766;2023-12-20T16:18:29;18.10;63.50
51815;DHT22;37874;53.158;6.766;2023-12-20T16:20:55;18.00;63.40
51815;DHT22;37874;53.158;6.766;2023-12-20T16:23:23;18.10;63.60
51815;DHT22;37874;53.158;6.766;2023-12-20T16:25:49;18.10;63.40
51815;DHT22;37874;53.158;6.766;2023-12-20T16:28:15;18.10;63.50
51815;DHT22;37874;53.158;6.766;2023-12-20T16:30:41;18.10;63.60
51815;DHT22;37874;53.158;6.766;2023-12-20T16:33:08;18.10;63.50
51815;DHT22;37874;53.158;6.766;2023-12-20T16:35:34;18.10;63.50
51815;DHT22;37874;53.158;6.766;2023-12-20T16:38:00;18.10;63.60
51815;DHT22;37874;53.158;6.766;2023-12-20T16:40:26;18.10;63.50